Stena Germanica — SKPZ — position and weather

sailwx.info

Track history (hours):
 
Tides and Currents Weather Stations Pressure Air Temp Water Temp Dewpoint Dewpoint Depression Visibility Wind Speed Wind Dir Waves Ship Positions

Stena Germanica

Last reported at 2014-Jul-24 01:34 UTC. Time now 2014-Jul-24 02:20 UTC.
Position N 55°27' E 017°12'.

Length 176 m; draft 6.6 m.

Type: Passenger vessel. MMSI: 265292000.

Date/timePositionNaut miles runAvg speedWind from/ knotsBaromVisibWave heightAir tempDewpointWater temp
2014-Jul-24 01:34N 55°27' E 017°12'1514.6
2014-Jul-24 00:34N 55°19' E 017°34'1514.9
2014-Jul-23 23:33N 55°11' E 017°56'1514.8
2014-Jul-23 22:33N 55°04' E 018°18'1615.5
2014-Jul-23 21:34N 54°54' E 018°39'1716.5
2014-Jul-23 20:33N 54°41' E 018°57'1313.3
2014-Jul-23 19:33N 54°32' E 018°41'6 6.2
2014-Jul-23 18:33N 54°33' E 018°30'0 0.0
2014-Jul-23 17:33N 54°33' E 018°30'6 6.1
2014-Jul-23 16:33N 54°32' E 018°41'1413.7
2014-Jul-23 15:34N 54°44' E 018°51'1818.3
2014-Jul-23 14:33N 54°59' E 018°31'1817.9
2014-Jul-23 13:33N 55°09' E 018°05'1817.9
2014-Jul-23 12:33N 55°18' E 017°38'1818.0
2014-Jul-23 11:33N 55°27' E 017°11'1817.8
2014-Jul-23 10:33N 55°37' E 016°44'2317.9
2014-Jul-23 09:18N 55°50' E 016°12'1317.6
2014-Jul-23 08:33N 55°57' E 015°53'1414.0
2014-Jul-23 07:33N 56°07' E 015°35'3 2.7
2014-Jul-23 06:31N 56°10' E 015°38'0 0.4
2014-Jul-23 05:34N 56°10' E 015°37'1312.6
2014-Jul-23 04:34N 55°59' E 015°48'1716.6
2014-Jul-23 03:33N 55°48' E 016°12'1716.8
2014-Jul-23 02:33N 55°40' E 016°37'1616.5
2014-Jul-23 01:34N 55°31' E 017°02'1716.6
2014-Jul-23 00:34N 55°23' E 017°27'1716.7
2014-Jul-22 23:33N 55°13' E 017°52'1716.8
2014-Jul-22 22:34N 55°04' E 018°16'1717.3
2014-Jul-22 21:33N 54°54' E 018°40'1717.5
2014-Jul-22 20:34N 54°39' E 018°57'1413.7
2014-Jul-22 19:33N 54°32' E 018°36'4 3.5
2014-Jul-22 18:33N 54°33' E 018°30'0 0.0
2014-Jul-22 17:33N 54°33' E 018°30'6 6.4
2014-Jul-22 16:33N 54°32' E 018°41'1313.4
2014-Jul-22 15:33N 54°44' E 018°52'1818.0
2014-Jul-22 14:33N 54°58' E 018°32'1817.9
2014-Jul-22 13:33N 55°08' E 018°06'1817.6
2014-Jul-22 12:33N 55°17' E 017°40'1817.6
2014-Jul-22 11:33N 55°26' E 017°13'1717.3
2014-Jul-22 10:33N 55°36' E 016°48'1717.5
2014-Jul-22 09:33N 55°46' E 016°23'1817.7
2014-Jul-22 08:33N 55°56' E 015°57'1615.5
2014-Jul-22 07:34N 56°05' E 015°34'6 5.6
2014-Jul-22 06:32N 56°10' E 015°38'0 0.0
2014-Jul-22 05:32N 56°10' E 015°38'7 7.3
2014-Jul-22 04:33N 56°03' E 015°37'1413.6
2014-Jul-22 03:33N 55°56' E 015°57'1313.1
2014-Jul-22 02:33N 55°52' E 016°20'1815.1
2014-Jul-22 01:23N 55°40' E 016°44'1215.1
2014-Jul-22 00:33N 55°33' E 017°01'1515.1
2014-Jul-21 23:33N 55°24' E 017°23'1615.9
2014-Jul-21 22:33N 55°14' E 017°45'1616.2
2014-Jul-21 21:33N 55°06' E 018°09'1616.3
2014-Jul-21 20:33N 54°57' E 018°34'416.1
2014-Jul-21 20:18N 54°54' E 018°38'1215.7
2014-Jul-21 19:33N 54°45' E 018°51'1312.8
2014-Jul-21 18:33N 54°32' E 018°50'1110.9
2014-Jul-21 17:33N 54°33' E 018°31'0 0.3
2014-Jul-21 16:31N 54°33' E 018°30'0 0.0
2014-Jul-21 15:31N 54°33' E 018°30'0 0.0
2014-Jul-21 14:31N 54°33' E 018°30'0 0.0
2014-Jul-21 13:31N 54°33' E 018°30'0 0.0
2014-Jul-21 12:31N 54°33' E 018°30'0 0.0
2014-Jul-21 11:31N 54°33' E 018°30'0 0.0
2014-Jul-21 10:31N 54°33' E 018°30'0 0.0
2014-Jul-21 09:31N 54°33' E 018°30'0 0.0
2014-Jul-21 08:31N 54°33' E 018°30'0 0.0
2014-Jul-21 07:31N 54°33' E 018°30'1 0.7
2014-Jul-21 06:33N 54°32' E 018°31'1312.6
2014-Jul-21 05:34N 54°36' E 018°52'1413.8
2014-Jul-21 04:34N 54°49' E 018°46'1515.4
2014-Jul-21 03:34N 54°60' E 018°27'1515.4
2014-Jul-21 02:34N 55°08' E 018°04'1615.6
2014-Jul-21 01:34N 55°17' E 017°42'1615.7
2014-Jul-21 00:31N 55°26' E 017°19'1515.9
2014-Jul-20 23:34N 55°35' E 016°56'1616.0
2014-Jul-20 22:34N 55°42' E 016°31'1616.1
2014-Jul-20 21:34N 55°51' E 016°08'1414.5
2014-Jul-20 20:34N 55°59' E 015°46'1111.2
2014-Jul-20 19:33N 56°09' E 015°37'1 0.7
2014-Jul-20 18:33N 56°10' E 015°38'4 3.6
2014-Jul-20 17:33N 56°07' E 015°35'1515.4
2014-Jul-20 16:34N 55°57' E 015°55'1716.9
2014-Jul-20 15:34N 55°47' E 016°20'1717.3
2014-Jul-20 14:34N 55°37' E 016°46'1717.3
2014-Jul-20 13:33N 55°28' E 017°11'1717.3
2014-Jul-20 12:34N 55°18' E 017°37'1717.2
2014-Jul-20 11:33N 55°09' E 018°02'1717.2
2014-Jul-20 10:33N 54°60' E 018°27'1717.1
2014-Jul-20 09:33N 54°47' E 018°48'1414.3
2014-Jul-20 08:34N 54°33' E 018°50'1111.1
2014-Jul-20 07:34N 54°32' E 018°31'1 0.7
2014-Jul-20 06:33N 54°33' E 018°30'0 0.0
2014-Jul-20 05:34N 54°33' E 018°30'7 7.5
2014-Jul-20 04:33N 54°32' E 018°43'1313.4
2014-Jul-20 03:33N 54°45' E 018°52'1817.6
2014-Jul-20 02:33N 54°58' E 018°31'1817.6
2014-Jul-20 01:33N 55°08' E 018°07'1817.8
2014-Jul-20 00:33N 55°18' E 017°40'1818.1
2014-Jul-19 23:33N 55°27' E 017°13'1817.8
2014-Jul-19 22:33N 55°37' E 016°47'1818.1
2014-Jul-19 21:33N 55°47' E 016°20'1817.7
2014-Jul-19 20:33N 55°57' E 015°54'1414.4
2014-Jul-19 19:33N 56°06' E 015°35'4 3.8
2014-Jul-19 18:32N 56°10' E 015°38'0 0.0
2014-Jul-19 17:33N 56°10' E 015°38'10 9.6
2014-Jul-19 16:34N 56°01' E 015°43'1716.7
2014-Jul-19 15:34N 55°51' E 016°07'1717.4
2014-Jul-19 14:34N 55°42' E 016°34'1717.4
2014-Jul-19 13:34N 55°33' E 016°59'1717.5
2014-Jul-19 12:34N 55°23' E 017°25'1717.4
2014-Jul-19 11:34N 55°14' E 017°51'1717.4
2014-Jul-19 10:34N 55°04' E 018°16'1717.4
2014-Jul-19 09:34N 54°53' E 018°40'1717.3
2014-Jul-19 08:34N 54°39' E 018°57'1313.4
2014-Jul-19 07:34N 54°32' E 018°37'4 4.0
2014-Jul-19 06:31N 54°33' E 018°30'0 0.0
2014-Jul-19 05:33N 54°33' E 018°30'7 7.1
2014-Jul-19 04:34N 54°32' E 018°42'1212.3
2014-Jul-19 03:34N 54°42' E 018°55'1514.6
2014-Jul-19 02:34N 54°53' E 018°39'1414.2
2014-Jul-19 01:34N 55°03' E 018°20'1514.6
2014-Jul-19 00:34N 55°10' E 017°59'1514.6
2014-Jul-18 23:34N 55°18' E 017°37'1514.7
2014-Jul-18 22:34N 55°26' E 017°16'1514.7
2014-Jul-18 21:33N 55°34' E 016°54'1515.0
2014-Jul-18 20:33N 55°43' E 016°32'1515.0
2014-Jul-18 19:34N 55°51' E 016°09'1414.4
2014-Jul-18 18:33N 55°59' E 015°48'1111.4
2014-Jul-18 17:33N 56°08' E 015°36'2 2.4
2014-Jul-18 16:33N 56°10' E 015°38'0 0.0
2014-Jul-18 15:33N 56°10' E 015°38'0 0.0
2014-Jul-18 14:33N 56°10' E 015°38'0 0.0
2014-Jul-18 13:33N 56°10' E 015°38'0 0.0
2014-Jul-18 12:33N 56°10' E 015°38'0 0.0
2014-Jul-18 11:33N 56°10' E 015°38'0 0.0
2014-Jul-18 10:33N 56°10' E 015°38'0 0.0
2014-Jul-18 09:33N 56°10' E 015°38'0 0.0
2014-Jul-18 08:33N 56°10' E 015°38'0 0.0
2014-Jul-18 07:33N 56°10' E 015°38'3 3.3
2014-Jul-18 06:33N 56°07' E 015°35'1514.9
2014-Jul-18 05:33N 55°57' E 015°54'1818.1
2014-Jul-18 04:33N 55°47' E 016°21'2018.1
2014-Jul-18 03:28N 55°36' E 016°51'1818.0
2014-Jul-18 02:28N 55°26' E 017°17'1618.0
2014-Jul-18 01:33N 55°17' E 017°41'1818.0
2014-Jul-18 00:33N 55°07' E 018°08'1818.1
2014-Jul-17 23:33N 54°57' E 018°34'1717.3
2014-Jul-17 22:33N 54°44' E 018°53'1313.1
2014-Jul-17 21:33N 54°32' E 018°45'9 8.5
2014-Jul-17 20:32N 54°33' E 018°30'0 0.0
2014-Jul-17 19:32N 54°33' E 018°30'3 3.3
2014-Jul-17 18:33N 54°32' E 018°36'1515.0
2014-Jul-17 17:33N 54°43' E 018°54'2019.6
2014-Jul-17 16:33N 54°58' E 018°32'2019.4
2014-Jul-17 15:33N 55°09' E 018°04'6619.5
2014-Jul-17 12:10N 55°45' E 016°26'1219.9
2014-Jul-17 11:33N 55°51' E 016°08'2019.8
2014-Jul-17 10:33N 56°02' E 015°38'8 7.7
2014-Jul-17 09:31N 56°10' E 015°38'0 0.0
2014-Jul-17 08:31N 56°10' E 015°38'0 0.0
2014-Jul-17 07:28N 56°10' E 015°38'0 0.1
2014-Jul-17 06:33N 56°10' E 015°38'1111.0
2014-Jul-17 05:34N 55°60' E 015°46'1515.0
2014-Jul-17 04:34N 55°52' E 016°08'1915.0
2014-Jul-17 03:18N 55°41' E 016°36'1115.0
2014-Jul-17 02:34N 55°35' E 016°52'1515.0
2014-Jul-17 01:33N 55°27' E 017°15'1515.3
2014-Jul-17 00:34N 55°19' E 017°37'1515.1
2014-Jul-16 23:34N 55°10' E 017°59'1515.2
2014-Jul-16 22:34N 55°02' E 018°21'1515.5
2014-Jul-16 21:34N 54°52' E 018°41'1615.6
2014-Jul-16 20:34N 54°39' E 018°57'1312.9
2014-Jul-16 19:33N 54°32' E 018°38'4 4.4
2014-Jul-16 18:33N 54°33' E 018°30'0 0.0
2014-Jul-16 17:33N 54°33' E 018°30'6 5.7
2014-Jul-16 16:34N 54°32' E 018°40'1313.3
2014-Jul-16 15:34N 54°43' E 018°53'1817.8
2014-Jul-16 14:34N 54°57' E 018°34'1817.9
2014-Jul-16 13:33N 55°07' E 018°08'1917.7
2014-Jul-16 12:30N 55°17' E 017°40'5917.6
2014-Jul-16 09:07N 55°49' E 016°11'1017.5
2014-Jul-16 08:34N 55°55' E 015°57'1616.4
2014-Jul-16 07:33N 56°05' E 015°34'5 4.7
2014-Jul-16 06:28N 56°10' E 015°38'0 0.0
2014-Jul-16 05:33N 56°10' E 015°38'1212.1
2014-Jul-16 04:34N 55°59' E 015°47'1817.9
2014-Jul-16 03:34N 55°52' E 016°17'2017.8
2014-Jul-16 02:25N 55°39' E 016°44'1517.9
2014-Jul-16 01:34N 55°30' E 017°06'1818.0
2014-Jul-16 00:34N 55°20' E 017°33'1818.0
2014-Jul-15 23:34N 55°10' E 017°59'1818.3
2014-Jul-15 22:34N 55°00' E 018°26'1818.0
2014-Jul-15 21:34N 54°48' E 018°48'1515.1
2014-Jul-15 20:34N 54°33' E 018°49'1111.1
2014-Jul-15 19:33N 54°33' E 018°30'0 0.0
2014-Jul-15 18:31N 54°33' E 018°30'0 0.0
2014-Jul-15 17:34N 54°33' E 018°30'6 5.9
2014-Jul-15 16:34N 54°32' E 018°40'1413.8
2014-Jul-15 15:34N 54°44' E 018°53'1818.2
2014-Jul-15 14:34N 54°58' E 018°32'1818.1
2014-Jul-15 13:34N 55°08' E 018°06'1918.1
2014-Jul-15 12:32N 55°18' E 017°38'5618.3
2014-Jul-15 09:27N 55°49' E 016°15'1618.1
2014-Jul-15 08:34N 55°58' E 015°51'1313.1
2014-Jul-15 07:33N 56°08' E 015°36'2 2.5
2014-Jul-15 06:33N 56°10' E 015°38'0 0.0
2014-Jul-15 05:34N 56°10' E 015°38'8 8.1
2014-Jul-15 04:33N 56°02' E 015°40'1414.2
2014-Jul-15 03:33N 55°55' E 016°02'1414.1
2014-Jul-15 02:33N 55°47' E 016°22'3314.5
2014-Jul-15 00:15N 55°29' E 017°12'1314.4
2014-Jul-14 23:19N 55°22' E 017°33'1114.3
2014-Jul-14 22:32N 55°15' E 017°47'1515.5
2014-Jul-14 21:33N 55°06' E 018°09'1616.0
2014-Jul-14 20:33N 54°58' E 018°32'1615.9
2014-Jul-14 19:33N 54°46' E 018°51'1312.9
2014-Jul-14 18:33N 54°33' E 018°50'1111.3
2014-Jul-14 17:34N 54°33' E 018°30'0 0.1
2014-Jul-14 16:31N 54°33' E 018°30'0 0.0
2014-Jul-14 15:31N 54°33' E 018°30'0 0.0
2014-Jul-14 14:31N 54°33' E 018°30'0 0.0
2014-Jul-14 13:31N 54°33' E 018°30'0 0.0
2014-Jul-14 12:31N 54°33' E 018°30'0 0.0
2014-Jul-14 11:31N 54°33' E 018°30'0 0.0
2014-Jul-14 10:31N 54°33' E 018°30'0 0.0
2014-Jul-14 09:31N 54°33' E 018°30'0 0.0
2014-Jul-14 08:31N 54°33' E 018°30'0 0.0
2014-Jul-14 07:31N 54°33' E 018°30'1 1.2
2014-Jul-14 06:33N 54°32' E 018°32'1212.0
2014-Jul-14 05:33N 54°35' E 018°52'1413.9
2014-Jul-14 04:33N 54°48' E 018°46'1616.2
2014-Jul-14 03:33N 55°00' E 018°27'1616.2
2014-Jul-14 02:33N 55°09' E 018°03'  
Track history (hours):
 
Tides and Currents Weather Stations Pressure Air Temp Water Temp Dewpoint Dewpoint Depression Visibility Wind Speed Wind Dir Waves Ship Positions

Stena Germanica

Last reported at 2014-Jul-24 01:34 UTC. Time now 2014-Jul-24 02:20 UTC.
Position N 55°27' E 017°12'.

Length 176 m; draft 6.6 m.

Type: Passenger vessel. MMSI: 265292000.

Date/timePositionNaut miles runAvg speedWind from/ knotsBaromVisibWave heightAir tempDewpointWater temp
2014-Jul-24 01:34N 55°27' E 017°12'1514.6
2014-Jul-24 00:34N 55°19' E 017°34'1514.9
2014-Jul-23 23:33N 55°11' E 017°56'1514.8
2014-Jul-23 22:33N 55°04' E 018°18'1615.5
2014-Jul-23 21:34N 54°54' E 018°39'1716.5
2014-Jul-23 20:33N 54°41' E 018°57'1313.3
2014-Jul-23 19:33N 54°32' E 018°41'6 6.2
2014-Jul-23 18:33N 54°33' E 018°30'0 0.0
2014-Jul-23 17:33N 54°33' E 018°30'6 6.1
2014-Jul-23 16:33N 54°32' E 018°41'1413.7
2014-Jul-23 15:34N 54°44' E 018°51'1818.3
2014-Jul-23 14:33N 54°59' E 018°31'1817.9
2014-Jul-23 13:33N 55°09' E 018°05'1817.9
2014-Jul-23 12:33N 55°18' E 017°38'1818.0
2014-Jul-23 11:33N 55°27' E 017°11'1817.8
2014-Jul-23 10:33N 55°37' E 016°44'2317.9
2014-Jul-23 09:18N 55°50' E 016°12'1317.6
2014-Jul-23 08:33N 55°57' E 015°53'1414.0
2014-Jul-23 07:33N 56°07' E 015°35'3 2.7
2014-Jul-23 06:31N 56°10' E 015°38'0 0.4
2014-Jul-23 05:34N 56°10' E 015°37'1312.6
2014-Jul-23 04:34N 55°59' E 015°48'1716.6
2014-Jul-23 03:33N 55°48' E 016°12'1716.8
2014-Jul-23 02:33N 55°40' E 016°37'1616.5
2014-Jul-23 01:34N 55°31' E 017°02'1716.6
2014-Jul-23 00:34N 55°23' E 017°27'1716.7
2014-Jul-22 23:33N 55°13' E 017°52'1716.8
2014-Jul-22 22:34N 55°04' E 018°16'1717.3
2014-Jul-22 21:33N 54°54' E 018°40'1717.5
2014-Jul-22 20:34N 54°39' E 018°57'1413.7
2014-Jul-22 19:33N 54°32' E 018°36'4 3.5
2014-Jul-22 18:33N 54°33' E 018°30'0 0.0
2014-Jul-22 17:33N 54°33' E 018°30'6 6.4
2014-Jul-22 16:33N 54°32' E 018°41'1313.4
2014-Jul-22 15:33N 54°44' E 018°52'1818.0
2014-Jul-22 14:33N 54°58' E 018°32'1817.9
2014-Jul-22 13:33N 55°08' E 018°06'1817.6
2014-Jul-22 12:33N 55°17' E 017°40'1817.6
2014-Jul-22 11:33N 55°26' E 017°13'1717.3
2014-Jul-22 10:33N 55°36' E 016°48'1717.5
2014-Jul-22 09:33N 55°46' E 016°23'1817.7
2014-Jul-22 08:33N 55°56' E 015°57'1615.5
2014-Jul-22 07:34N 56°05' E 015°34'6 5.6
2014-Jul-22 06:32N 56°10' E 015°38'0 0.0
2014-Jul-22 05:32N 56°10' E 015°38'7 7.3
2014-Jul-22 04:33N 56°03' E 015°37'1413.6
2014-Jul-22 03:33N 55°56' E 015°57'1313.1
2014-Jul-22 02:33N 55°52' E 016°20'1815.1
2014-Jul-22 01:23N 55°40' E 016°44'1215.1
2014-Jul-22 00:33N 55°33' E 017°01'1515.1
2014-Jul-21 23:33N 55°24' E 017°23'1615.9
2014-Jul-21 22:33N 55°14' E 017°45'1616.2
2014-Jul-21 21:33N 55°06' E 018°09'1616.3
2014-Jul-21 20:33N 54°57' E 018°34'416.1
2014-Jul-21 20:18N 54°54' E 018°38'1215.7
2014-Jul-21 19:33N 54°45' E 018°51'1312.8
2014-Jul-21 18:33N 54°32' E 018°50'1110.9
2014-Jul-21 17:33N 54°33' E 018°31'0 0.3
2014-Jul-21 16:31N 54°33' E 018°30'0 0.0
2014-Jul-21 15:31N 54°33' E 018°30'0 0.0
2014-Jul-21 14:31N 54°33' E 018°30'0 0.0
2014-Jul-21 13:31N 54°33' E 018°30'0 0.0
2014-Jul-21 12:31N 54°33' E 018°30'0 0.0
2014-Jul-21 11:31N 54°33' E 018°30'0 0.0
2014-Jul-21 10:31N 54°33' E 018°30'0 0.0
2014-Jul-21 09:31N 54°33' E 018°30'0 0.0
2014-Jul-21 08:31N 54°33' E 018°30'0 0.0
2014-Jul-21 07:31N 54°33' E 018°30'1 0.7
2014-Jul-21 06:33N 54°32' E 018°31'1312.6
2014-Jul-21 05:34N 54°36' E 018°52'1413.8
2014-Jul-21 04:34N 54°49' E 018°46'1515.4
2014-Jul-21 03:34N 54°60' E 018°27'1515.4
2014-Jul-21 02:34N 55°08' E 018°04'1615.6
2014-Jul-21 01:34N 55°17' E 017°42'1615.7
2014-Jul-21 00:31N 55°26' E 017°19'1515.9
2014-Jul-20 23:34N 55°35' E 016°56'1616.0
2014-Jul-20 22:34N 55°42' E 016°31'1616.1
2014-Jul-20 21:34N 55°51' E 016°08'1414.5
2014-Jul-20 20:34N 55°59' E 015°46'1111.2
2014-Jul-20 19:33N 56°09' E 015°37'1 0.7
2014-Jul-20 18:33N 56°10' E 015°38'4 3.6
2014-Jul-20 17:33N 56°07' E 015°35'1515.4
2014-Jul-20 16:34N 55°57' E 015°55'1716.9
2014-Jul-20 15:34N 55°47' E 016°20'1717.3
2014-Jul-20 14:34N 55°37' E 016°46'1717.3
2014-Jul-20 13:33N 55°28' E 017°11'1717.3
2014-Jul-20 12:34N 55°18' E 017°37'1717.2
2014-Jul-20 11:33N 55°09' E 018°02'1717.2
2014-Jul-20 10:33N 54°60' E 018°27'1717.1
2014-Jul-20 09:33N 54°47' E 018°48'1414.3
2014-Jul-20 08:34N 54°33' E 018°50'1111.1
2014-Jul-20 07:34N 54°32' E 018°31'1 0.7
2014-Jul-20 06:33N 54°33' E 018°30'0 0.0
2014-Jul-20 05:34N 54°33' E 018°30'7 7.5
2014-Jul-20 04:33N 54°32' E 018°43'1313.4
2014-Jul-20 03:33N 54°45' E 018°52'1817.6
2014-Jul-20 02:33N 54°58' E 018°31'1817.6
2014-Jul-20 01:33N 55°08' E 018°07'1817.8
2014-Jul-20 00:33N 55°18' E 017°40'1818.1
2014-Jul-19 23:33N 55°27' E 017°13'1817.8
2014-Jul-19 22:33N 55°37' E 016°47'1818.1
2014-Jul-19 21:33N 55°47' E 016°20'1817.7
2014-Jul-19 20:33N 55°57' E 015°54'1414.4
2014-Jul-19 19:33N 56°06' E 015°35'4 3.8
2014-Jul-19 18:32N 56°10' E 015°38'0 0.0
2014-Jul-19 17:33N 56°10' E 015°38'10 9.6
2014-Jul-19 16:34N 56°01' E 015°43'1716.7
2014-Jul-19 15:34N 55°51' E 016°07'1717.4
2014-Jul-19 14:34N 55°42' E 016°34'1717.4
2014-Jul-19 13:34N 55°33' E 016°59'1717.5
2014-Jul-19 12:34N 55°23' E 017°25'1717.4
2014-Jul-19 11:34N 55°14' E 017°51'1717.4
2014-Jul-19 10:34N 55°04' E 018°16'1717.4
2014-Jul-19 09:34N 54°53' E 018°40'1717.3
2014-Jul-19 08:34N 54°39' E 018°57'1313.4
2014-Jul-19 07:34N 54°32' E 018°37'4 4.0
2014-Jul-19 06:31N 54°33' E 018°30'0 0.0
2014-Jul-19 05:33N 54°33' E 018°30'7 7.1
2014-Jul-19 04:34N 54°32' E 018°42'1212.3
2014-Jul-19 03:34N 54°42' E 018°55'1514.6
2014-Jul-19 02:34N 54°53' E 018°39'1414.2
2014-Jul-19 01:34N 55°03' E 018°20'1514.6
2014-Jul-19 00:34N 55°10' E 017°59'1514.6
2014-Jul-18 23:34N 55°18' E 017°37'1514.7
2014-Jul-18 22:34N 55°26' E 017°16'1514.7
2014-Jul-18 21:33N 55°34' E 016°54'1515.0
2014-Jul-18 20:33N 55°43' E 016°32'1515.0
2014-Jul-18 19:34N 55°51' E 016°09'1414.4
2014-Jul-18 18:33N 55°59' E 015°48'1111.4
2014-Jul-18 17:33N 56°08' E 015°36'2 2.4
2014-Jul-18 16:33N 56°10' E 015°38'0 0.0
2014-Jul-18 15:33N 56°10' E 015°38'0 0.0
2014-Jul-18 14:33N 56°10' E 015°38'0 0.0
2014-Jul-18 13:33N 56°10' E 015°38'0 0.0
2014-Jul-18 12:33N 56°10' E 015°38'0 0.0
2014-Jul-18 11:33N 56°10' E 015°38'0 0.0
2014-Jul-18 10:33N 56°10' E 015°38'0 0.0
2014-Jul-18 09:33N 56°10' E 015°38'0 0.0
2014-Jul-18 08:33N 56°10' E 015°38'0 0.0
2014-Jul-18 07:33N 56°10' E 015°38'3 3.3
2014-Jul-18 06:33N 56°07' E 015°35'1514.9
2014-Jul-18 05:33N 55°57' E 015°54'1818.1
2014-Jul-18 04:33N 55°47' E 016°21'2018.1
2014-Jul-18 03:28N 55°36' E 016°51'1818.0
2014-Jul-18 02:28N 55°26' E 017°17'1618.0
2014-Jul-18 01:33N 55°17' E 017°41'1818.0
2014-Jul-18 00:33N 55°07' E 018°08'1818.1
2014-Jul-17 23:33N 54°57' E 018°34'1717.3
2014-Jul-17 22:33N 54°44' E 018°53'1313.1
2014-Jul-17 21:33N 54°32' E 018°45'9 8.5
2014-Jul-17 20:32N 54°33' E 018°30'0 0.0
2014-Jul-17 19:32N 54°33' E 018°30'3 3.3
2014-Jul-17 18:33N 54°32' E 018°36'1515.0
2014-Jul-17 17:33N 54°43' E 018°54'2019.6
2014-Jul-17 16:33N 54°58' E 018°32'2019.4
2014-Jul-17 15:33N 55°09' E 018°04'6619.5
2014-Jul-17 12:10N 55°45' E 016°26'1219.9
2014-Jul-17 11:33N 55°51' E 016°08'2019.8
2014-Jul-17 10:33N 56°02' E 015°38'8 7.7
2014-Jul-17 09:31N 56°10' E 015°38'0 0.0
2014-Jul-17 08:31N 56°10' E 015°38'0 0.0
2014-Jul-17 07:28N 56°10' E 015°38'0 0.1
2014-Jul-17 06:33N 56°10' E 015°38'1111.0
2014-Jul-17 05:34N 55°60' E 015°46'1515.0
2014-Jul-17 04:34N 55°52' E 016°08'1915.0
2014-Jul-17 03:18N 55°41' E 016°36'1115.0
2014-Jul-17 02:34N 55°35' E 016°52'1515.0
2014-Jul-17 01:33N 55°27' E 017°15'1515.3
2014-Jul-17 00:34N 55°19' E 017°37'1515.1
2014-Jul-16 23:34N 55°10' E 017°59'1515.2
2014-Jul-16 22:34N 55°02' E 018°21'1515.5
2014-Jul-16 21:34N 54°52' E 018°41'1615.6
2014-Jul-16 20:34N 54°39' E 018°57'1312.9
2014-Jul-16 19:33N 54°32' E 018°38'4 4.4
2014-Jul-16 18:33N 54°33' E 018°30'0 0.0
2014-Jul-16 17:33N 54°33' E 018°30'6 5.7
2014-Jul-16 16:34N 54°32' E 018°40'1313.3
2014-Jul-16 15:34N 54°43' E 018°53'1817.8
2014-Jul-16 14:34N 54°57' E 018°34'1817.9
2014-Jul-16 13:33N 55°07' E 018°08'1917.7
2014-Jul-16 12:30N 55°17' E 017°40'5917.6
2014-Jul-16 09:07N 55°49' E 016°11'1017.5
2014-Jul-16 08:34N 55°55' E 015°57'1616.4
2014-Jul-16 07:33N 56°05' E 015°34'5 4.7
2014-Jul-16 06:28N 56°10' E 015°38'0 0.0
2014-Jul-16 05:33N 56°10' E 015°38'1212.1
2014-Jul-16 04:34N 55°59' E 015°47'1817.9
2014-Jul-16 03:34N 55°52' E 016°17'2017.8
2014-Jul-16 02:25N 55°39' E 016°44'1517.9
2014-Jul-16 01:34N 55°30' E 017°06'1818.0
2014-Jul-16 00:34N 55°20' E 017°33'1818.0
2014-Jul-15 23:34N 55°10' E 017°59'1818.3
2014-Jul-15 22:34N 55°00' E 018°26'1818.0
2014-Jul-15 21:34N 54°48' E 018°48'1515.1
2014-Jul-15 20:34N 54°33' E 018°49'1111.1
2014-Jul-15 19:33N 54°33' E 018°30'0 0.0
2014-Jul-15 18:31N 54°33' E 018°30'0 0.0
2014-Jul-15 17:34N 54°33' E 018°30'6 5.9
2014-Jul-15 16:34N 54°32' E 018°40'1413.8
2014-Jul-15 15:34N 54°44' E 018°53'1818.2
2014-Jul-15 14:34N 54°58' E 018°32'1818.1
2014-Jul-15 13:34N 55°08' E 018°06'1918.1
2014-Jul-15 12:32N 55°18' E 017°38'5618.3
2014-Jul-15 09:27N 55°49' E 016°15'1618.1
2014-Jul-15 08:34N 55°58' E 015°51'1313.1
2014-Jul-15 07:33N 56°08' E 015°36'2 2.5
2014-Jul-15 06:33N 56°10' E 015°38'0 0.0
2014-Jul-15 05:34N 56°10' E 015°38'8 8.1
2014-Jul-15 04:33N 56°02' E 015°40'1414.2
2014-Jul-15 03:33N 55°55' E 016°02'1414.1
2014-Jul-15 02:33N 55°47' E 016°22'3314.5
2014-Jul-15 00:15N 55°29' E 017°12'1314.4
2014-Jul-14 23:19N 55°22' E 017°33'1114.3
2014-Jul-14 22:32N 55°15' E 017°47'1515.5
2014-Jul-14 21:33N 55°06' E 018°09'1616.0
2014-Jul-14 20:33N 54°58' E 018°32'1615.9
2014-Jul-14 19:33N 54°46' E 018°51'1312.9
2014-Jul-14 18:33N 54°33' E 018°50'1111.3
2014-Jul-14 17:34N 54°33' E 018°30'0 0.1
2014-Jul-14 16:31N 54°33' E 018°30'0 0.0
2014-Jul-14 15:31N 54°33' E 018°30'0 0.0
2014-Jul-14 14:31N 54°33' E 018°30'0 0.0
2014-Jul-14 13:31N 54°33' E 018°30'0 0.0
2014-Jul-14 12:31N 54°33' E 018°30'0 0.0
2014-Jul-14 11:31N 54°33' E 018°30'0 0.0
2014-Jul-14 10:31N 54°33' E 018°30'0 0.0
2014-Jul-14 09:31N 54°33' E 018°30'0 0.0
2014-Jul-14 08:31N 54°33' E 018°30'0 0.0
2014-Jul-14 07:31N 54°33' E 018°30'1 1.2
2014-Jul-14 06:33N 54°32' E 018°32'1212.0
2014-Jul-14 05:33N 54°35' E 018°52'1413.9
2014-Jul-14 04:33N 54°48' E 018°46'1616.2
2014-Jul-14 03:33N 55°00' E 018°27'1616.2
2014-Jul-14 02:33N 55°09' E 018°03'  

Dump ship's entire track history